Time;durP1;ratioP1;P1;durP2;ratioP2;P2;SDS_P1;SDS_P2;PMS_P1;PMS_P2;Temp;Humidity;BMP_temperature;BMP_pressure;BME280_temperature;BME280_humidity;BME280_pressure;Samples;Min_cycle;Max_cycle;Signal;HPM_P1;HPM_P2
2023/12/27 00:00:51;;;;;;;42.42;31.00;;;;;;;;;;5011823;28;20080;-68
2023/12/27 00:03:17;;;;;;;43.70;30.30;;;;;;;;;;5012054;28;20038;-68
2023/12/27 00:05:43;;;;;;;38.55;28.42;;;;;;;;;;5012000;28;20468;-68
2023/12/27 00:08:09;;;;;;;37.88;29.60;;;;;;;;;;5011975;28;20028;-68
2023/12/27 00:10:35;;;;;;;36.25;28.80;;;;;;;;;;5011930;28;20056;-68
2023/12/27 00:13:07;;;;;;;37.42;27.83;;;;;;;;;;5007255;28;20101;-68
2023/12/27 00:15:33;;;;;;;33.83;27.13;;;;;;;;;;5015291;28;20403;-68
2023/12/27 00:17:59;;;;;;;33.83;29.15;;;;;;;;;;5011991;28;20487;-68
2023/12/27 00:20:25;;;;;;;35.58;28.17;;;;;;;;;;5011749;28;20064;-69
2023/12/27 00:22:51;;;;;;;36.15;29.25;;;;;;;;;;5011700;28;20034;-69
2023/12/27 00:25:17;;;;;;;42.40;29.83;;;;;;;;;;5011647;28;20333;-68
2023/12/27 00:27:43;;;;;;;37.47;27.63;;;;;;;;;;5011822;28;20137;-68
2023/12/27 00:30:09;;;;;;;39.08;29.60;;;;;;;;;;5010434;28;20056;-68
2023/12/27 00:32:35;;;;;;;44.50;31.60;;;;;;;;;;5011711;28;20072;-69
2023/12/27 00:35:01;;;;;;;41.60;30.20;;;;;;;;;;5011471;28;20145;-69
2023/12/27 00:37:27;;;;;;;38.45;29.95;;;;;;;;;;5011688;28;20044;-69
2023/12/27 00:39:53;;;;;;;32.63;26.75;;;;;;;;;;5011802;28;20082;-69
2023/12/27 00:42:19;;;;;;;36.05;27.60;;;;;;;;;;5012005;28;20018;-69
2023/12/27 00:44:45;;;;;;;39.38;27.20;;;;;;;;;;5011992;28;20096;-68
2023/12/27 00:47:12;;;;;;;37.95;27.63;;;;;;;;;;5011534;28;20022;-69
2023/12/27 00:49:38;;;;;;;38.88;27.70;;;;;;;;;;5010316;28;20032;-69
2023/12/27 00:52:04;;;;;;;30.05;25.42;;;;;;;;;;5010019;28;20448;-68
2023/12/27 00:54:30;;;;;;;34.13;23.35;;;;;;;;;;5011597;28;20041;-68
2023/12/27 00:56:56;;;;;;;24.73;22.08;;;;;;;;;;5012785;28;20038;-68
2023/12/27 00:59:22;;;;;;;26.67;21.40;;;;;;;;;;5010334;28;20353;-69
2023/12/27 01:01:48;;;;;;;28.52;21.30;;;;;;;;;;5015660;28;20030;-68
2023/12/27 01:04:14;;;;;;;27.95;21.85;;;;;;;;;;5015158;28;20420;-68
2023/12/27 01:06:40;;;;;;;27.60;20.75;;;;;;;;;;5015325;28;20014;-68
2023/12/27 01:09:07;;;;;;;27.80;19.67;;;;;;;;;;5015348;28;20033;-68
2023/12/27 01:11:33;;;;;;;26.15;20.42;;;;;;;;;;5013555;28;20026;-68
2023/12/27 01:13:59;;;;;;;29.58;20.42;;;;;;;;;;5015058;28;20049;-69
2023/12/27 01:16:25;;;;;;;24.15;20.13;;;;;;;;;;5015013;28;20448;-69
2023/12/27 01:18:51;;;;;;;30.00;22.00;;;;;;;;;;5015210;28;20026;-69
2023/12/27 01:21:17;;;;;;;26.67;21.65;;;;;;;;;;5014968;28;20033;-68
2023/12/27 01:23:44;;;;;;;28.40;21.20;;;;;;;;;;5014815;28;20022;-68
2023/12/27 01:26:10;;;;;;;26.92;21.35;;;;;;;;;;5013372;28;20029;-68
2023/12/27 01:28:36;;;;;;;30.75;22.80;;;;;;;;;;5014771;28;20026;-67
2023/12/27 01:31:02;;;;;;;29.73;20.23;;;;;;;;;;5014899;28;20026;-67
2023/12/27 01:33:28;;;;;;;27.85;20.77;;;;;;;;;;5014289;28;20045;-68
2023/12/27 01:35:55;;;;;;;29.90;21.30;;;;;;;;;;5014661;28;20034;-68
2023/12/27 01:38:21;;;;;;;29.85;21.30;;;;;;;;;;5014757;28;20377;-68
2023/12/27 01:40:50;;;;;;;24.17;20.63;;;;;;;;;;5020773;28;20078;-68
2023/12/27 01:43:16;;;;;;;25.95;19.30;;;;;;;;;;5020083;28;20033;-68
2023/12/27 01:45:43;;;;;;;27.40;19.40;;;;;;;;;;5014682;28;20053;-68
2023/12/27 01:48:09;;;;;;;28.60;21.05;;;;;;;;;;5010796;28;20037;-67
2023/12/27 01:50:36;;;;;;;26.77;21.88;;;;;;;;;;5010689;28;20026;-68
2023/12/27 01:53:02;;;;;;;31.30;21.23;;;;;;;;;;5015156;28;20026;-68
2023/12/27 01:55:28;;;;;;;31.25;21.00;;;;;;;;;;5010051;28;20037;-68
2023/12/27 01:57:55;;;;;;;31.70;22.35;;;;;;;;;;5015836;28;20440;-68
2023/12/27 02:00:21;;;;;;;28.83;22.15;;;;;;;;;;5030659;28;20032;-68
2023/12/27 02:02:47;;;;;;;28.98;20.88;;;;;;;;;;5030534;28;20037;-68
2023/12/27 02:05:13;;;;;;;27.63;21.50;;;;;;;;;;5017889;28;20034;-68
2023/12/27 02:07:41;;;;;;;27.38;21.35;;;;;;;;;;5027437;28;20044;-67
2023/12/27 02:10:07;;;;;;;26.17;20.90;;;;;;;;;;5013418;28;20114;-68
2023/12/27 02:12:36;;;;;;;30.30;22.20;;;;;;;;;;5013883;28;20480;-68
2023/12/27 02:15:02;;;;;;;33.38;25.35;;;;;;;;;;5019307;28;20475;-68
2023/12/27 02:17:28;;;;;;;29.50;24.20;;;;;;;;;;5022169;28;20049;-68
2023/12/27 02:19:54;;;;;;;29.27;23.25;;;;;;;;;;5013631;28;20356;-68
2023/12/27 02:22:22;;;;;;;30.85;23.95;;;;;;;;;;5012542;28;20022;-68
2023/12/27 02:24:49;;;;;;;30.40;25.35;;;;;;;;;;5012682;28;20494;-68
2023/12/27 02:27:15;;;;;;;28.38;24.75;;;;;;;;;;5005501;28;20429;-68
2023/12/27 02:29:41;;;;;;;30.80;24.98;;;;;;;;;;5007383;28;20034;-68
2023/12/27 02:32:08;;;;;;;32.15;24.27;;;;;;;;;;5017184;28;20503;-68
2023/12/27 02:34:34;;;;;;;32.38;24.73;;;;;;;;;;5019283;28;20065;-68
2023/12/27 02:37:00;;;;;;;30.88;23.92;;;;;;;;;;5012445;28;20034;-68
2023/12/27 02:39:26;;;;;;;32.90;25.90;;;;;;;;;;5011245;28;20450;-68
2023/12/27 02:41:52;;;;;;;28.95;24.52;;;;;;;;;;5012450;28;20072;-68
2023/12/27 02:44:18;;;;;;;31.02;23.63;;;;;;;;;;5012785;28;20499;-68
2023/12/27 02:46:45;;;;;;;34.88;25.20;;;;;;;;;;5011130;28;20034;-67
2023/12/27 02:49:11;;;;;;;31.08;24.60;;;;;;;;;;5012874;28;20026;-68
2023/12/27 02:51:37;;;;;;;34.72;25.27;;;;;;;;;;5012419;28;20030;-67
2023/12/27 02:54:03;;;;;;;36.72;25.75;;;;;;;;;;5012392;28;20095;-68
2023/12/27 02:56:29;;;;;;;32.50;24.45;;;;;;;;;;5012296;28;20038;-68
2023/12/27 02:58:55;;;;;;;32.40;24.45;;;;;;;;;;5012365;28;20029;-69
2023/12/27 03:01:21;;;;;;;37.15;25.08;;;;;;;;;;5012182;28;20447;-68
2023/12/27 03:03:47;;;;;;;30.30;23.95;;;;;;;;;;5012888;28;20026;-68
2023/12/27 03:06:13;;;;;;;30.92;24.15;;;;;;;;;;5018238;28;20175;-68
2023/12/27 03:08:39;;;;;;;31.73;23.17;;;;;;;;;;5021674;28;20420;-67
2023/12/27 03:11:06;;;;;;;29.10;23.55;;;;;;;;;;5012533;28;20045;-67
2023/12/27 03:13:32;;;;;;;26.23;21.17;;;;;;;;;;5012904;28;20511;-68
2023/12/27 03:15:58;;;;;;;26.38;20.88;;;;;;;;;;5012523;28;20554;-67
2023/12/27 03:18:24;;;;;;;30.10;22.23;;;;;;;;;;5012832;28;20030;-67
2023/12/27 03:20:50;;;;;;;27.73;20.48;;;;;;;;;;5010112;28;20030;-67
2023/12/27 03:23:16;;;;;;;27.63;20.60;;;;;;;;;;5012563;28;20512;-67
2023/12/27 03:25:45;;;;;;;22.17;19.08;;;;;;;;;;5011103;28;20121;-68
2023/12/27 03:28:11;;;;;;;23.80;18.60;;;;;;;;;;5030909;28;20107;-68
2023/12/27 03:30:37;;;;;;;27.08;20.35;;;;;;;;;;5028824;28;20029;-67
2023/12/27 03:33:04;;;;;;;22.33;19.67;;;;;;;;;;5020732;28;20034;-68
2023/12/27 03:35:30;;;;;;;23.17;19.30;;;;;;;;;;5022746;28;20049;-68
2023/12/27 03:37:56;;;;;;;28.60;19.35;;;;;;;;;;5015535;28;20424;-67
2023/12/27 03:40:22;;;;;;;24.48;18.48;;;;;;;;;;5012272;28;20136;-67
2023/12/27 03:42:48;;;;;;;20.58;17.58;;;;;;;;;;5012753;28;20042;-67
2023/12/27 03:45:14;;;;;;;24.13;17.92;;;;;;;;;;5007953;28;20364;-68
2023/12/27 03:47:40;;;;;;;25.65;17.85;;;;;;;;;;5010853;28;20026;-68
2023/12/27 03:50:06;;;;;;;22.85;17.90;;;;;;;;;;5012207;28;20045;-67
2023/12/27 03:52:32;;;;;;;21.17;18.38;;;;;;;;;;5012017;28;20333;-67
2023/12/27 03:54:58;;;;;;;22.85;17.90;;;;;;;;;;5012393;28;20415;-67
2023/12/27 03:57:24;;;;;;;22.38;18.15;;;;;;;;;;5012002;28;20128;-68
2023/12/27 03:59:50;;;;;;;22.23;17.77;;;;;;;;;;5012272;28;20112;-67
2023/12/27 04:02:16;;;;;;;21.27;16.33;;;;;;;;;;5025507;28;20057;-67
2023/12/27 04:04:42;;;;;;;20.45;16.42;;;;;;;;;;5012179;28;20033;-67
2023/12/27 04:07:08;;;;;;;24.13;16.77;;;;;;;;;;5011768;28;20022;-67
2023/12/27 04:09:34;;;;;;;20.15;16.52;;;;;;;;;;5012259;28;20057;-67
2023/12/27 04:12:00;;;;;;;26.40;20.77;;;;;;;;;;5011648;28;20325;-67
2023/12/27 04:14:26;;;;;;;32.30;23.63;;;;;;;;;;5012092;28;20563;-67
2023/12/27 04:16:52;;;;;;;31.58;24.70;;;;;;;;;;5011707;28;20096;-67
2023/12/27 04:19:18;;;;;;;31.83;25.30;;;;;;;;;;5011691;28;20021;-67
2023/12/27 04:21:44;;;;;;;31.02;24.40;;;;;;;;;;5011810;28;20040;-67
2023/12/27 04:24:10;;;;;;;27.05;22.23;;;;;;;;;;5011814;28;20018;-69
2023/12/27 04:26:37;;;;;;;28.00;22.88;;;;;;;;;;5010343;28;20384;-67
2023/12/27 04:29:03;;;;;;;26.30;21.48;;;;;;;;;;5011914;28;20049;-67
2023/12/27 04:31:29;;;;;;;27.67;20.92;;;;;;;;;;5011210;28;20136;-67
2023/12/27 04:33:55;;;;;;;24.30;19.67;;;;;;;;;;5011534;28;20050;-67
2023/12/27 04:36:21;;;;;;;28.23;20.20;;;;;;;;;;4998150;28;20041;-67
2023/12/27 04:38:47;;;;;;;27.48;20.67;;;;;;;;;;5011806;28;20373;-67
2023/12/27 04:41:14;;;;;;;29.92;21.35;;;;;;;;;;5011291;28;20109;-67
2023/12/27 04:43:40;;;;;;;29.58;22.63;;;;;;;;;;5011613;28;20022;-67
2023/12/27 04:46:07;;;;;;;26.70;21.52;;;;;;;;;;5011735;28;20033;-67
2023/12/27 04:48:33;;;;;;;28.23;21.98;;;;;;;;;;5011564;28;20040;-67
2023/12/27 04:50:59;;;;;;;34.30;22.10;;;;;;;;;;5011413;28;20029;-67
2023/12/27 04:53:25;;;;;;;26.85;21.55;;;;;;;;;;5011698;28;20490;-69
2023/12/27 04:55:51;;;;;;;27.70;20.55;;;;;;;;;;5011720;28;20034;-68
2023/12/27 04:58:17;;;;;;;25.85;20.30;;;;;;;;;;5011693;28;20033;-69
2023/12/27 05:00:43;;;;;;;23.77;19.73;;;;;;;;;;5011337;28;20392;-69
2023/12/27 05:03:09;;;;;;;25.02;20.77;;;;;;;;;;5011374;28;20030;-68
2023/12/27 05:05:35;;;;;;;29.23;21.73;;;;;;;;;;5011638;28;20037;-68
2023/12/27 05:08:01;;;;;;;25.35;19.70;;;;;;;;;;5011293;28;20030;-69
2023/12/27 05:10:27;;;;;;;26.40;20.63;;;;;;;;;;5011465;28;20084;-69
2023/12/27 05:12:53;;;;;;;24.15;18.75;;;;;;;;;;5011444;28;20075;-69
2023/12/27 05:15:29;;;;;;;29.25;20.30;;;;;;;;;;5011403;28;20018;-68
2023/12/27 05:17:55;;;;;;;25.48;19.48;;;;;;;;;;5011414;28;20105;-68
2023/12/27 05:20:21;;;;;;;27.70;22.30;;;;;;;;;;5011126;28;20049;-68
2023/12/27 05:22:47;;;;;;;37.80;26.33;;;;;;;;;;5011351;28;20434;-68
2023/12/27 05:25:13;;;;;;;37.92;27.88;;;;;;;;;;5011133;28;20097;-69
2023/12/27 05:27:39;;;;;;;40.95;30.00;;;;;;;;;;5011278;28;20074;-69
2023/12/27 05:30:08;;;;;;;34.25;28.67;;;;;;;;;;5011043;28;20374;-68
2023/12/27 05:32:34;;;;;;;38.88;28.05;;;;;;;;;;5011167;28;20017;-68
2023/12/27 05:35:00;;;;;;;30.92;24.75;;;;;;;;;;5010860;28;20587;-69
2023/12/27 05:37:26;;;;;;;32.60;24.17;;;;;;;;;;5010985;28;20054;-69
2023/12/27 05:39:52;;;;;;;33.80;24.40;;;;;;;;;;5011284;28;20026;-68
2023/12/27 05:42:18;;;;;;;28.58;23.23;;;;;;;;;;5009509;28;20039;-68
2023/12/27 05:44:44;;;;;;;31.90;25.00;;;;;;;;;;5013320;28;20014;-68
2023/12/27 05:47:10;;;;;;;26.77;22.23;;;;;;;;;;5011207;28;20093;-68
2023/12/27 05:49:36;;;;;;;25.27;22.55;;;;;;;;;;5014283;28;20104;-68
2023/12/27 05:52:03;;;;;;;29.33;23.77;;;;;;;;;;5014408;28;20472;-68
2023/12/27 05:54:29;;;;;;;34.50;23.35;;;;;;;;;;5014359;28;20037;-68
2023/12/27 05:56:55;;;;;;;31.83;23.95;;;;;;;;;;5014569;28;20029;-68
2023/12/27 05:59:21;;;;;;;28.35;24.02;;;;;;;;;;5012945;28;20026;-68
2023/12/27 06:01:47;;;;;;;27.58;23.55;;;;;;;;;;5014463;28;20033;-68
2023/12/27 06:04:15;;;;;;;32.08;25.58;;;;;;;;;;5014432;28;20030;-68
2023/12/27 06:06:41;;;;;;;30.05;25.23;;;;;;;;;;5012652;28;20094;-69
2023/12/27 06:09:07;;;;;;;32.63;25.02;;;;;;;;;;5014243;28;20064;-69
2023/12/27 06:11:33;;;;;;;31.50;24.45;;;;;;;;;;5013998;28;20026;-69
2023/12/27 06:13:59;;;;;;;30.95;25.75;;;;;;;;;;5014303;28;20537;-70
2023/12/27 06:16:25;;;;;;;29.80;24.92;;;;;;;;;;5004091;28;20038;-69
2023/12/27 06:18:54;;;;;;;30.48;25.50;;;;;;;;;;5013805;28;20377;-69
2023/12/27 06:21:20;;;;;;;32.97;25.58;;;;;;;;;;5013826;28;20383;-69
2023/12/27 06:23:46;;;;;;;29.65;24.90;;;;;;;;;;5013774;28;20484;-69
2023/12/27 06:26:13;;;;;;;34.92;24.23;;;;;;;;;;5010515;28;20022;-68
2023/12/27 06:28:39;;;;;;;30.73;25.83;;;;;;;;;;5013050;28;20026;-68
2023/12/27 06:31:04;;;;;;;30.42;24.88;;;;;;;;;;5010931;28;20025;-69
2023/12/27 06:33:31;;;;;;;29.42;25.05;;;;;;;;;;5006702;28;20456;-69
2023/12/27 06:35:57;;;;;;;27.15;24.20;;;;;;;;;;5012268;28;20036;-69
2023/12/27 06:38:23;;;;;;;32.03;25.70;;;;;;;;;;5011992;28;20030;-68
2023/12/27 06:40:49;;;;;;;30.35;24.15;;;;;;;;;;5013010;28;20030;-68
2023/12/27 06:43:15;;;;;;;33.13;25.20;;;;;;;;;;5013372;28;20026;-69
2023/12/27 06:45:41;;;;;;;32.05;23.63;;;;;;;;;;5006555;28;20037;-69
2023/12/27 06:48:07;;;;;;;28.77;24.48;;;;;;;;;;5005672;28;20026;-68
2023/12/27 06:50:33;;;;;;;29.40;23.55;;;;;;;;;;5010321;28;20364;-69
2023/12/27 06:52:59;;;;;;;27.30;22.90;;;;;;;;;;5015796;28;20022;-68
2023/12/27 06:55:25;;;;;;;27.42;22.45;;;;;;;;;;5015238;28;20076;-68
2023/12/27 06:57:51;;;;;;;30.52;22.70;;;;;;;;;;5013409;28;20412;-68
2023/12/27 07:00:17;;;;;;;31.00;23.60;;;;;;;;;;5011688;28;20033;-68
2023/12/27 07:02:43;;;;;;;32.38;22.77;;;;;;;;;;5012935;28;20026;-68
2023/12/27 07:05:11;;;;;;;29.15;22.40;;;;;;;;;;5013014;28;20104;-68
2023/12/27 07:07:37;;;;;;;29.52;23.13;;;;;;;;;;5012906;28;20025;-69
2023/12/27 07:10:04;;;;;;;30.92;23.75;;;;;;;;;;5023797;28;20361;-68
2023/12/27 07:12:30;;;;;;;26.27;20.77;;;;;;;;;;5015324;28;20025;-69
2023/12/27 07:14:56;;;;;;;27.08;21.63;;;;;;;;;;5013049;28;20034;-68
2023/12/27 07:17:23;;;;;;;23.23;20.70;;;;;;;;;;5012591;28;20037;-68
2023/12/27 07:19:49;;;;;;;23.70;20.38;;;;;;;;;;5012771;28;20358;-68
2023/12/27 07:22:15;;;;;;;28.33;21.40;;;;;;;;;;5011396;28;20092;-68
2023/12/27 07:24:41;;;;;;;27.15;20.95;;;;;;;;;;5012577;28;20029;-68
2023/12/27 07:27:09;;;;;;;26.92;20.88;;;;;;;;;;5006507;28;20027;-68
2023/12/27 07:29:36;;;;;;;21.65;19.17;;;;;;;;;;5010492;28;20467;-68
2023/12/27 07:32:03;;;;;;;24.50;18.98;;;;;;;;;;5011156;28;20029;-68
2023/12/27 07:34:29;;;;;;;21.65;18.67;;;;;;;;;;5012189;28;20436;-69
2023/12/27 07:36:55;;;;;;;24.83;18.40;;;;;;;;;;5012427;28;20081;-68
2023/12/27 07:42:25;;;;;;;24.73;18.25;;;;;;;;;;5006098;28;20033;-69
2023/12/27 07:44:52;;;;;;;24.92;18.40;;;;;;;;;;5026200;28;20029;-68
2023/12/27 07:47:18;;;;;;;22.90;17.65;;;;;;;;;;5012357;28;20026;-68
2023/12/27 07:49:44;;;;;;;23.67;17.55;;;;;;;;;;5010884;28;20109;-68
2023/12/27 07:52:10;;;;;;;26.00;17.30;;;;;;;;;;5012271;28;20195;-68
2023/12/27 07:54:36;;;;;;;24.20;16.77;;;;;;;;;;5012463;28;20121;-68
2023/12/27 07:57:08;;;;;;;21.63;16.98;;;;;;;;;;5012042;28;20033;-69
2023/12/27 07:59:34;;;;;;;23.63;17.70;;;;;;;;;;5012394;28;20029;-68
2023/12/27 08:02:00;;;;;;;22.13;16.67;;;;;;;;;;5010482;28;20029;-67
2023/12/27 08:04:27;;;;;;;24.50;16.50;;;;;;;;;;5012329;28;20030;-68
2023/12/27 08:06:53;;;;;;;22.65;17.55;;;;;;;;;;5011365;28;20029;-68
2023/12/27 08:09:19;;;;;;;20.17;17.02;;;;;;;;;;5011878;28;20051;-68
2023/12/27 08:11:45;;;;;;;26.02;16.70;;;;;;;;;;5011561;28;20451;-68
2023/12/27 08:14:11;;;;;;;22.45;18.17;;;;;;;;;;5010574;28;20022;-68
2023/12/27 08:16:37;;;;;;;26.90;18.70;;;;;;;;;;5012003;28;20038;-68
2023/12/27 08:19:03;;;;;;;23.60;18.10;;;;;;;;;;5011695;28;20032;-68
2023/12/27 08:21:29;;;;;;;25.77;17.70;;;;;;;;;;5011596;28;20029;-68
2023/12/27 08:23:55;;;;;;;23.52;18.15;;;;;;;;;;5010231;28;20041;-68
2023/12/27 08:26:21;;;;;;;25.30;18.65;;;;;;;;;;5011663;28;20386;-68
2023/12/27 08:28:47;;;;;;;27.10;19.73;;;;;;;;;;5011640;28;20104;-69
2023/12/27 08:31:14;;;;;;;24.30;18.60;;;;;;;;;;5012016;28;20052;-68
2023/12/27 08:33:40;;;;;;;26.08;19.10;;;;;;;;;;5011602;28;20038;-68
2023/12/27 08:36:06;;;;;;;24.45;17.55;;;;;;;;;;5011439;28;20530;-68
2023/12/27 08:38:32;;;;;;;26.52;19.33;;;;;;;;;;5011475;28;20490;-68
2023/12/27 08:40:59;;;;;;;23.35;18.52;;;;;;;;;;5009951;28;20053;-68
2023/12/27 08:43:29;;;;;;;26.70;19.90;;;;;;;;;;5016262;28;20020;-68
2023/12/27 08:45:56;;;;;;;27.75;19.20;;;;;;;;;;5020016;28;20453;-68
2023/12/27 08:48:22;;;;;;;27.65;19.60;;;;;;;;;;5010027;28;20017;-68
2023/12/27 08:50:48;;;;;;;26.25;19.45;;;;;;;;;;5011693;28;20038;-68
2023/12/27 08:53:14;;;;;;;28.75;20.58;;;;;;;;;;5009964;28;20546;-68
2023/12/27 08:55:40;;;;;;;28.35;19.65;;;;;;;;;;5010012;28;20403;-68
2023/12/27 08:58:09;;;;;;;25.35;18.00;;;;;;;;;;5011622;28;20034;-68
2023/12/27 09:00:35;;;;;;;23.45;18.52;;;;;;;;;;4998651;28;20440;-68
2023/12/27 09:03:01;;;;;;;23.63;17.45;;;;;;;;;;5011251;28;20459;-68
2023/12/27 09:05:27;;;;;;;23.13;16.27;;;;;;;;;;5011483;28;20053;-68
2023/12/27 09:07:53;;;;;;;21.52;17.52;;;;;;;;;;5011754;28;20116;-68
2023/12/27 09:10:20;;;;;;;20.85;16.30;;;;;;;;;;5011048;28;20030;-68
2023/12/27 09:12:46;;;;;;;24.98;17.63;;;;;;;;;;5004313;28;20057;-68
2023/12/27 09:15:13;;;;;;;21.00;17.15;;;;;;;;;;5011048;28;20053;-68
2023/12/27 09:17:39;;;;;;;20.20;16.77;;;;;;;;;;5011831;28;20048;-68
2023/12/27 09:20:07;;;;;;;21.83;16.88;;;;;;;;;;5014345;28;20030;-68
2023/12/27 09:22:34;;;;;;;25.95;16.85;;;;;;;;;;5013259;28;20091;-68
2023/12/27 09:25:00;;;;;;;22.55;14.98;;;;;;;;;;5009545;28;20057;-68
2023/12/27 09:27:26;;;;;;;24.23;16.23;;;;;;;;;;5018866;28;20188;-68
2023/12/27 09:29:52;;;;;;;21.30;16.63;;;;;;;;;;5013552;28;20037;-68
2023/12/27 09:32:18;;;;;;;27.58;17.95;;;;;;;;;;5018820;28;20549;-68
2023/12/27 09:34:44;;;;;;;23.90;17.30;;;;;;;;;;5016590;28;20137;-68
2023/12/27 09:37:10;;;;;;;19.98;16.33;;;;;;;;;;5017999;28;20124;-68
2023/12/27 09:39:37;;;;;;;21.38;17.58;;;;;;;;;;5014849;28;20438;-68
2023/12/27 09:42:03;;;;;;;22.67;16.67;;;;;;;;;;5010464;28;20533;-68
2023/12/27 09:44:42;;;;;;;29.05;17.52;;;;;;;;;;5030444;28;20423;-68
2023/12/27 09:47:10;;;;;;;25.08;17.05;;;;;;;;;;5002149;28;20034;-68
2023/12/27 09:49:37;;;;;;;26.40;17.05;;;;;;;;;;5014442;28;20030;-68
2023/12/27 09:52:04;;;;;;;29.17;19.35;;;;;;;;;;5013958;28;20025;-68
2023/12/27 09:54:30;;;;;;;24.67;19.13;;;;;;;;;;5010065;28;20026;-68
2023/12/27 09:56:56;;;;;;;26.45;19.05;;;;;;;;;;5014011;28;20403;-67
2023/12/27 09:59:26;;;;;;;28.55;19.52;;;;;;;;;;5014305;28;20034;-67
2023/12/27 10:01:56;;;;;;;24.02;18.55;;;;;;;;;;5012729;28;20029;-68
2023/12/27 10:04:42;;;;;;;23.08;18.52;;;;;;;;;;5012508;28;20026;-68
2023/12/27 10:07:09;;;;;;;24.42;18.25;;;;;;;;;;5014524;28;20044;-67
2023/12/27 10:09:35;;;;;;;27.17;19.88;;;;;;;;;;5031114;28;20034;-68
2023/12/27 10:12:01;;;;;;;33.53;24.42;;;;;;;;;;5028194;28;20344;-68
2023/12/27 10:14:28;;;;;;;32.75;23.90;;;;;;;;;;5029571;28;20034;-68
2023/12/27 10:16:54;;;;;;;34.65;25.70;;;;;;;;;;5024609;28;20041;-68
2023/12/27 10:19:39;;;;;;;34.45;25.95;;;;;;;;;;5028349;28;20033;-68
2023/12/27 10:22:05;;;;;;;36.15;26.85;;;;;;;;;;5029852;28;20188;-68
2023/12/27 10:24:31;;;;;;;36.83;26.23;;;;;;;;;;5028816;28;20025;-68
2023/12/27 10:26:57;;;;;;;30.90;27.55;;;;;;;;;;5030974;28;20033;-68
2023/12/27 10:29:24;;;;;;;40.08;26.67;;;;;;;;;;5027051;28;20022;-68
2023/12/27 10:31:50;;;;;;;34.28;26.92;;;;;;;;;;5022226;28;20053;-68
2023/12/27 10:34:18;;;;;;;35.38;27.13;;;;;;;;;;5014085;28;20094;-68
2023/12/27 10:36:44;;;;;;;39.63;26.45;;;;;;;;;;5023668;28;20030;-68
2023/12/27 10:39:10;;;;;;;35.30;26.80;;;;;;;;;;5024800;28;20033;-68
2023/12/27 10:41:37;;;;;;;36.10;26.35;;;;;;;;;;5029690;28;20036;-68
2023/12/27 10:44:07;;;;;;;33.30;25.65;;;;;;;;;;5030407;28;20021;-68
2023/12/27 10:46:34;;;;;;;30.58;26.42;;;;;;;;;;5016574;28;20041;-68
2023/12/27 10:49:02;;;;;;;31.15;25.58;;;;;;;;;;5013437;28;20049;-67
2023/12/27 10:51:29;;;;;;;33.30;27.77;;;;;;;;;;5013193;28;20025;-67
2023/12/27 10:54:00;;;;;;;28.38;24.67;;;;;;;;;;5007653;28;20018;-68
2023/12/27 10:56:26;;;;;;;28.80;25.70;;;;;;;;;;5006764;28;20566;-67
2023/12/27 10:58:53;;;;;;;33.63;26.77;;;;;;;;;;5020047;28;20100;-68
2023/12/27 11:01:19;;;;;;;32.00;27.27;;;;;;;;;;5011150;28;20049;-68
2023/12/27 11:03:49;;;;;;;30.75;27.40;;;;;;;;;;5010835;28;20064;-68
2023/12/27 11:06:19;;;;;;;34.53;28.58;;;;;;;;;;5012739;28;20105;-68
2023/12/27 11:08:46;;;;;;;32.72;27.33;;;;;;;;;;5013258;28;20423;-68
2023/12/27 11:11:15;;;;;;;39.20;29.58;;;;;;;;;;5012665;28;20112;-68
2023/12/27 11:13:42;;;;;;;33.70;28.95;;;;;;;;;;5012937;28;20055;-68
2023/12/27 11:16:08;;;;;;;32.10;28.05;;;;;;;;;;5012804;28;20116;-68
2023/12/27 11:18:35;;;;;;;32.90;28.27;;;;;;;;;;5012897;28;20034;-68
2023/12/27 11:21:01;;;;;;;34.75;28.42;;;;;;;;;;5012876;28;20041;-68
2023/12/27 11:23:28;;;;;;;40.70;29.40;;;;;;;;;;5012580;28;20029;-68
2023/12/27 11:26:00;;;;;;;33.88;28.48;;;;;;;;;;5012663;28;20097;-68
2023/12/27 11:28:26;;;;;;;35.92;28.65;;;;;;;;;;5012680;28;20041;-67
2023/12/27 11:30:53;;;;;;;36.88;28.73;;;;;;;;;;5012469;28;20564;-67
2023/12/27 11:33:22;;;;;;;32.65;27.60;;;;;;;;;;5012613;28;20037;-68
2023/12/27 11:35:48;;;;;;;33.10;28.73;;;;;;;;;;5012237;28;20113;-67
2023/12/27 11:38:25;;;;;;;36.42;29.38;;;;;;;;;;5012379;28;20426;-68
2023/12/27 11:40:52;;;;;;;42.42;28.95;;;;;;;;;;5012274;28;20468;-68
2023/12/27 11:43:22;;;;;;;36.80;29.80;;;;;;;;;;5012488;28;20028;-68
2023/12/27 11:46:06;;;;;;;33.58;28.60;;;;;;;;;;5012221;28;20105;-68
2023/12/27 11:48:33;;;;;;;38.85;28.30;;;;;;;;;;5003443;28;20032;-67
2023/12/27 11:51:22;;;;;;;32.92;29.33;;;;;;;;;;5012194;28;20026;-67
2023/12/27 11:53:49;;;;;;;39.58;29.73;;;;;;;;;;5012147;28;20026;-68
2023/12/27 11:56:15;;;;;;;31.13;27.75;;;;;;;;;;5012287;28;20048;-67
2023/12/27 11:58:41;;;;;;;33.28;28.90;;;;;;;;;;5012042;28;20139;-69
2023/12/27 12:01:26;;;;;;;33.13;29.38;;;;;;;;;;5012059;28;20380;-68
2023/12/27 12:04:10;;;;;;;32.47;28.75;;;;;;;;;;5012144;28;20356;-68
2023/12/27 12:06:36;;;;;;;32.47;29.00;;;;;;;;;;5011957;28;20110;-67
2023/12/27 12:09:02;;;;;;;32.35;28.77;;;;;;;;;;5010768;28;20037;-68
2023/12/27 12:11:29;;;;;;;33.58;27.83;;;;;;;;;;5011896;28;20029;-67
2023/12/27 12:13:55;;;;;;;34.25;28.15;;;;;;;;;;5011816;28;20030;-68
2023/12/27 12:16:21;;;;;;;32.83;27.67;;;;;;;;;;5008970;28;20395;-67
2023/12/27 12:18:48;;;;;;;35.80;29.08;;;;;;;;;;5011646;28;20037;-68
2023/12/27 12:21:30;;;;;;;33.05;27.48;;;;;;;;;;5010429;28;20064;-67
2023/12/27 12:23:56;;;;;;;30.05;26.90;;;;;;;;;;4999546;28;20025;-68
2023/12/27 12:26:22;;;;;;;30.80;26.92;;;;;;;;;;5010431;28;20022;-68
2023/12/27 12:28:55;;;;;;;34.45;27.05;;;;;;;;;;5011154;28;20105;-68
2023/12/27 12:31:21;;;;;;;36.10;27.00;;;;;;;;;;5006868;28;20027;-68
2023/12/27 12:33:47;;;;;;;34.22;26.58;;;;;;;;;;5009771;28;20046;-68
2023/12/27 12:36:14;;;;;;;32.92;24.95;;;;;;;;;;5011827;28;20038;-68
2023/12/27 12:38:40;;;;;;;29.58;23.02;;;;;;;;;;5011862;28;20058;-68
2023/12/27 12:41:06;;;;;;;32.10;24.23;;;;;;;;;;5011861;28;20162;-68
2023/12/27 12:43:32;;;;;;;28.38;23.67;;;;;;;;;;5011734;28;20488;-68
2023/12/27 12:45:59;;;;;;;28.15;24.60;;;;;;;;;;5012019;28;20041;-68
2023/12/27 12:48:26;;;;;;;27.60;24.63;;;;;;;;;;5011636;28;20049;-67
2023/12/27 12:51:10;;;;;;;31.48;25.50;;;;;;;;;;5011517;28;20076;-68
2023/12/27 12:53:36;;;;;;;28.40;24.08;;;;;;;;;;5014057;28;20030;-68
2023/12/27 12:56:02;;;;;;;30.85;22.80;;;;;;;;;;5013958;28;20178;-68
2023/12/27 12:58:29;;;;;;;33.97;24.88;;;;;;;;;;5004103;28;20169;-67
2023/12/27 13:00:55;;;;;;;31.10;23.25;;;;;;;;;;5013056;28;20029;-68
2023/12/27 13:03:21;;;;;;;24.42;21.77;;;;;;;;;;5008208;28;20110;-68
2023/12/27 13:05:48;;;;;;;27.38;22.50;;;;;;;;;;5026226;28;20060;-68
2023/12/27 13:08:15;;;;;;;26.80;23.20;;;;;;;;;;5015276;28;20045;-67
2023/12/27 13:10:41;;;;;;;30.38;22.63;;;;;;;;;;5015036;28;20502;-67
2023/12/27 13:13:07;;;;;;;29.27;23.25;;;;;;;;;;5015097;28;20376;-69
2023/12/27 13:15:34;;;;;;;28.30;23.40;;;;;;;;;;5015044;28;20550;-68
2023/12/27 13:18:00;;;;;;;28.58;23.40;;;;;;;;;;5015047;28;20518;-69
2023/12/27 13:20:26;;;;;;;30.67;23.17;;;;;;;;;;5015286;28;20018;-68
2023/12/27 13:22:52;;;;;;;33.75;22.50;;;;;;;;;;5015319;28;20046;-68
2023/12/27 13:25:18;;;;;;;30.48;22.13;;;;;;;;;;5013564;28;20392;-68
2023/12/27 13:27:45;;;;;;;27.80;21.95;;;;;;;;;;5014876;28;20018;-68
2023/12/27 13:30:11;;;;;;;28.95;22.00;;;;;;;;;;5015044;28;20029;-68
2023/12/27 13:32:37;;;;;;;31.15;23.08;;;;;;;;;;5010310;28;20067;-68
2023/12/27 13:35:03;;;;;;;28.38;23.05;;;;;;;;;;5009411;28;20052;-67
2023/12/27 13:37:29;;;;;;;26.48;21.83;;;;;;;;;;5014406;28;20367;-67
2023/12/27 13:39:55;;;;;;;30.45;23.25;;;;;;;;;;5013319;28;20026;-68
2023/12/27 13:42:22;;;;;;;31.48;25.08;;;;;;;;;;5014424;28;20032;-68
2023/12/27 13:44:48;;;;;;;31.23;24.92;;;;;;;;;;5014713;28;20026;-68
2023/12/27 13:47:18;;;;;;;32.17;24.88;;;;;;;;;;5014441;28;20409;-68
2023/12/27 13:49:44;;;;;;;35.28;25.98;;;;;;;;;;5014716;28;20186;-68
2023/12/27 13:52:10;;;;;;;37.42;26.10;;;;;;;;;;5014440;28;20026;-68
2023/12/27 13:54:36;;;;;;;30.00;25.17;;;;;;;;;;5014842;28;20029;-68
2023/12/27 13:57:30;;;;;;;30.55;25.55;;;;;;;;;;5014611;28;20038;-68
2023/12/27 13:59:56;;;;;;;37.22;26.58;;;;;;;;;;5003942;28;20050;-68
2023/12/27 14:02:22;;;;;;;33.80;27.45;;;;;;;;;;5014488;28;20116;-68
2023/12/27 14:04:48;;;;;;;32.00;26.15;;;;;;;;;;5011666;28;20052;-68
2023/12/27 14:07:17;;;;;;;34.40;26.02;;;;;;;;;;5014411;28;20053;-68
2023/12/27 14:09:43;;;;;;;31.60;25.33;;;;;;;;;;5000428;28;20464;-68
2023/12/27 14:12:09;;;;;;;32.60;26.33;;;;;;;;;;5014260;28;20034;-68
2023/12/27 14:14:35;;;;;;;38.45;26.10;;;;;;;;;;5012089;28;20086;-68
2023/12/27 14:17:01;;;;;;;34.20;27.23;;;;;;;;;;5014275;28;20143;-68